Time;durP1;ratioP1;P1;durP2;ratioP2;P2;SDS_P1;SDS_P2;PMS_P1;PMS_P2;Temp;Humidity;BMP_temperature;BMP_pressure;BME280_temperature;BME280_humidity;BME280_pressure;Samples;Min_cycle;Max_cycle;Signal;HPM_P1;HPM_P2
2022/07/18 00:02:33;;;;;;;;;;;10.30;99.90;;;;;;5105076;27;19912;-54
2022/07/18 00:05:13;;;;;;;;;;;10.30;99.90;;;;;;5125588;27;19912;-55
2022/07/18 00:07:53;;;;;;;;;;;10.20;99.90;;;;;;5104221;27;19919;-55
2022/07/18 00:10:33;;;;;;;;;;;10.20;99.90;;;;;;5116619;27;19916;-55
2022/07/18 00:13:13;;;;;;;;;;;10.20;99.90;;;;;;5125617;27;20078;-54
2022/07/18 00:15:52;;;;;;;;;;;10.20;99.90;;;;;;5125572;27;20357;-55
2022/07/18 00:18:32;;;;;;;;;;;10.20;99.90;;;;;;5125799;27;20266;-55
2022/07/18 00:21:12;;;;;;;;;;;10.10;99.90;;;;;;5090941;27;19926;-55
2022/07/18 00:23:52;;;;;;;;;;;10.00;99.90;;;;;;5126557;27;19916;-55
2022/07/18 00:26:32;;;;;;;;;;;9.90;99.90;;;;;;5124960;27;19916;-55
2022/07/18 00:29:12;;;;;;;;;;;9.80;99.90;;;;;;5125628;27;20351;-54
2022/07/18 00:31:51;;;;;;;;;;;9.80;99.90;;;;;;5084691;28;19916;-54
2022/07/18 00:34:31;;;;;;;;;;;9.80;99.90;;;;;;5105365;27;19912;-54
2022/07/18 00:37:11;;;;;;;;;;;9.70;99.90;;;;;;5124627;27;19912;-55
2022/07/18 00:39:51;;;;;;;;;;;9.70;99.90;;;;;;5122576;27;19920;-54
2022/07/18 00:42:31;;;;;;;;;;;9.60;99.90;;;;;;5103082;27;20323;-55
2022/07/18 00:45:11;;;;;;;;;;;9.60;99.90;;;;;;5105751;27;19934;-53
2022/07/18 00:47:52;;;;;;;;;;;9.50;99.90;;;;;;5127134;27;19912;-54
2022/07/18 00:50:32;;;;;;;;;;;9.50;99.90;;;;;;5105244;27;19953;-54
2022/07/18 00:53:12;;;;;;;;;;;9.60;99.90;;;;;;5125584;27;20315;-56
2022/07/18 00:55:53;;;;;;;;;;;9.60;99.90;;;;;;5124980;27;19912;-55
2022/07/18 00:58:33;;;;;;;;;;;9.50;99.90;;;;;;5125734;27;19924;-54
2022/07/18 01:04:11;;;;;;;;;;;9.30;99.90;;;;;;5125599;27;19912;-55
2022/07/18 01:06:52;;;;;;;;;;;9.20;99.90;;;;;;5104026;27;20342;-55
2022/07/18 01:09:31;;;;;;;;;;;9.20;99.90;;;;;;5104839;27;20426;-55
2022/07/18 01:12:11;;;;;;;;;;;9.20;99.90;;;;;;5105458;27;19927;-55
2022/07/18 01:14:51;;;;;;;;;;;9.20;99.90;;;;;;5125832;27;19960;-55
2022/07/18 01:17:31;;;;;;;;;;;9.20;99.90;;;;;;5103832;27;19912;-56
2022/07/18 01:20:12;;;;;;;;;;;9.20;99.90;;;;;;5125554;27;19916;-55
2022/07/18 01:22:52;;;;;;;;;;;9.20;99.90;;;;;;5125452;27;20373;-54
2022/07/18 01:25:32;;;;;;;;;;;9.20;99.90;;;;;;5104812;27;19969;-55
2022/07/18 01:28:12;;;;;;;;;;;9.20;99.90;;;;;;5105352;27;19945;-55
2022/07/18 01:30:52;;;;;;;;;;;9.10;99.90;;;;;;5125996;27;19918;-55
2022/07/18 01:33:33;;;;;;;;;;;9.00;99.90;;;;;;5117978;27;20144;-54
2022/07/18 01:36:13;;;;;;;;;;;8.90;99.90;;;;;;5103752;27;19912;-55
2022/07/18 01:38:53;;;;;;;;;;;8.80;99.90;;;;;;5145369;27;19916;-55
2022/07/18 01:41:32;;;;;;;;;;;8.70;99.90;;;;;;5125377;27;19994;-56
2022/07/18 01:44:12;;;;;;;;;;;8.70;99.90;;;;;;5125107;27;20359;-55
2022/07/18 01:46:52;;;;;;;;;;;8.70;99.90;;;;;;5125242;27;19912;-54
2022/07/18 01:49:32;;;;;;;;;;;8.70;99.90;;;;;;5126155;27;20100;-55
2022/07/18 01:52:12;;;;;;;;;;;8.60;99.90;;;;;;5125882;27;19918;-54
2022/07/18 01:54:52;;;;;;;;;;;8.60;99.90;;;;;;5125651;27;19912;-56
2022/07/18 01:57:31;;;;;;;;;;;8.60;99.90;;;;;;5104111;27;20274;-55
2022/07/18 02:00:12;;;;;;;;;;;8.50;99.90;;;;;;5119608;27;19916;-56
2022/07/18 02:02:53;;;;;;;;;;;8.50;99.90;;;;;;5125884;27;19919;-54
2022/07/18 02:05:33;;;;;;;;;;;8.50;99.90;;;;;;5125643;27;19920;-54
2022/07/18 02:08:12;;;;;;;;;;;8.50;99.90;;;;;;5125346;27;20385;-54
2022/07/18 02:10:52;;;;;;;;;;;8.60;99.90;;;;;;5125168;27;19929;-56
2022/07/18 02:13:32;;;;;;;;;;;8.60;99.90;;;;;;5125479;27;19920;-55
2022/07/18 02:16:12;;;;;;;;;;;8.50;99.90;;;;;;5125067;27;19935;-56
2022/07/18 02:18:52;;;;;;;;;;;8.40;99.90;;;;;;5125363;27;19916;-54
2022/07/18 02:21:31;;;;;;;;;;;8.50;99.90;;;;;;5087597;27;19927;-55
2022/07/18 02:24:11;;;;;;;;;;;8.40;99.90;;;;;;5125579;27;19912;-55
2022/07/18 02:26:51;;;;;;;;;;;8.40;99.90;;;;;;5125042;27;19918;-55
2022/07/18 02:29:33;;;;;;;;;;;8.40;99.90;;;;;;5125243;27;20316;-56
2022/07/18 02:32:12;;;;;;;;;;;8.30;99.90;;;;;;5105118;27;19930;-55
2022/07/18 02:34:52;;;;;;;;;;;8.20;99.90;;;;;;5126018;27;19922;-54
2022/07/18 02:37:32;;;;;;;;;;;8.20;99.90;;;;;;5103215;27;20146;-55
2022/07/18 02:40:12;;;;;;;;;;;8.20;99.90;;;;;;5119245;27;19912;-55
2022/07/18 02:42:52;;;;;;;;;;;8.10;99.90;;;;;;5124048;27;19912;-54
2022/07/18 02:45:32;;;;;;;;;;;8.10;99.90;;;;;;5124816;27;20296;-55
2022/07/18 02:48:11;;;;;;;;;;;8.10;99.90;;;;;;5124440;27;19912;-55
2022/07/18 02:50:51;;;;;;;;;;;8.10;99.90;;;;;;5125496;27;19911;-55
2022/07/18 02:53:31;;;;;;;;;;;8.00;99.90;;;;;;5125275;27;19912;-55
2022/07/18 02:56:11;;;;;;;;;;;7.90;99.90;;;;;;5124481;27;19911;-54
2022/07/18 02:58:51;;;;;;;;;;;7.90;99.90;;;;;;5104990;27;19977;-55
2022/07/18 03:01:31;;;;;;;;;;;7.90;99.90;;;;;;5119985;22;19961;-55
2022/07/18 03:04:10;;;;;;;;;;;7.90;99.90;;;;;;5124859;27;20401;-55
2022/07/18 03:06:50;;;;;;;;;;;7.90;99.90;;;;;;5124862;27;19912;-55
2022/07/18 03:09:30;;;;;;;;;;;7.90;99.90;;;;;;5104587;27;19916;-55
2022/07/18 03:12:10;;;;;;;;;;;8.00;99.90;;;;;;5104730;27;19954;-55
2022/07/18 03:14:50;;;;;;;;;;;7.90;99.90;;;;;;5104840;27;20507;-54
2022/07/18 03:17:31;;;;;;;;;;;7.90;99.90;;;;;;5104473;27;20279;-55
2022/07/18 03:20:12;;;;;;;;;;;7.80;99.90;;;;;;5123073;27;19912;-54
2022/07/18 03:22:52;;;;;;;;;;;7.80;99.90;;;;;;5104704;27;19926;-55
2022/07/18 03:25:32;;;;;;;;;;;7.80;99.90;;;;;;5124906;27;19912;-55
2022/07/18 03:28:12;;;;;;;;;;;7.80;99.90;;;;;;5125547;27;19918;-55
2022/07/18 03:30:52;;;;;;;;;;;7.90;99.90;;;;;;5124939;27;19912;-55
2022/07/18 03:33:32;;;;;;;;;;;7.90;99.90;;;;;;5122197;27;19916;-55
2022/07/18 03:36:12;;;;;;;;;;;8.00;99.90;;;;;;5104290;27;20328;-54
2022/07/18 03:38:52;;;;;;;;;;;8.00;99.90;;;;;;5104555;27;19912;-55
2022/07/18 03:41:33;;;;;;;;;;;8.00;99.90;;;;;;5125342;27;20215;-55
2022/07/18 03:44:13;;;;;;;;;;;8.10;99.90;;;;;;5103626;27;19916;-55
2022/07/18 03:46:53;;;;;;;;;;;8.10;99.90;;;;;;5125772;27;19911;-55
2022/07/18 03:49:34;;;;;;;;;;;8.10;99.90;;;;;;5125851;27;19924;-55
2022/07/18 03:52:14;;;;;;;;;;;8.10;99.90;;;;;;5125694;27;19911;-55
2022/07/18 03:54:53;;;;;;;;;;;8.30;99.90;;;;;;5126019;27;20284;-55
2022/07/18 03:57:33;;;;;;;;;;;8.40;99.90;;;;;;5124763;27;20297;-55
2022/07/18 04:00:14;;;;;;;;;;;8.50;99.90;;;;;;5125641;27;19916;-55
2022/07/18 04:02:55;;;;;;;;;;;8.60;99.90;;;;;;5125568;27;20261;-55
2022/07/18 04:05:34;;;;;;;;;;;8.80;99.90;;;;;;5084700;28;19913;-55
2022/07/18 04:08:14;;;;;;;;;;;9.00;99.90;;;;;;5124585;27;19922;-55
2022/07/18 04:10:54;;;;;;;;;;;9.20;99.90;;;;;;5125534;27;19912;-56
2022/07/18 04:13:34;;;;;;;;;;;9.20;99.90;;;;;;5104875;27;19916;-55
2022/07/18 04:16:14;;;;;;;;;;;9.30;99.90;;;;;;5104381;27;20327;-55
2022/07/18 04:18:54;;;;;;;;;;;9.40;99.90;;;;;;5107008;27;20425;-56
2022/07/18 04:21:34;;;;;;;;;;;9.50;99.90;;;;;;5105939;27;19920;-55
2022/07/18 04:24:13;;;;;;;;;;;9.70;99.90;;;;;;5125020;27;19912;-54
2022/07/18 04:26:53;;;;;;;;;;;9.90;99.90;;;;;;5146056;27;19912;-54
2022/07/18 04:29:33;;;;;;;;;;;10.90;99.90;;;;;;5125195;27;19912;-55
2022/07/18 04:32:13;;;;;;;;;;;12.60;99.90;;;;;;5125496;27;20371;-55
2022/07/18 04:34:53;;;;;;;;;;;13.90;99.90;;;;;;5105266;27;19918;-55
2022/07/18 04:37:32;;;;;;;;;;;14.20;99.90;;;;;;5125029;27;19935;-55
2022/07/18 04:40:13;;;;;;;;;;;14.80;99.90;;;;;;5105086;27;19912;-55
2022/07/18 04:42:54;;;;;;;;;;;15.40;99.90;;;;;;5127458;27;20364;-55
2022/07/18 04:45:34;;;;;;;;;;;15.00;99.90;;;;;;5106900;27;19912;-55
2022/07/18 04:48:15;;;;;;;;;;;14.60;99.90;;;;;;5113071;27;19962;-55
2022/07/18 04:50:55;;;;;;;;;;;14.30;99.90;;;;;;5118282;27;19912;-55
2022/07/18 04:53:35;;;;;;;;;;;14.90;99.90;;;;;;5086213;28;20365;-54
2022/07/18 04:56:14;;;;;;;;;;;16.10;99.90;;;;;;5106037;27;19914;-55
2022/07/18 04:58:54;;;;;;;;;;;17.20;99.90;;;;;;5127057;27;19920;-55
2022/07/18 05:01:35;;;;;;;;;;;18.00;99.90;;;;;;5106401;27;19912;-54
2022/07/18 05:04:15;;;;;;;;;;;18.60;99.90;;;;;;5127363;27;19918;-54
2022/07/18 05:06:55;;;;;;;;;;;19.10;99.90;;;;;;5106155;27;19912;-55
2022/07/18 05:09:35;;;;;;;;;;;19.40;92.20;;;;;;5126947;27;19912;-55
2022/07/18 05:12:15;;;;;;;;;;;19.20;94.10;;;;;;5106501;27;20207;-55
2022/07/18 05:14:55;;;;;;;;;;;19.10;90.40;;;;;;5127071;27;19911;-55
2022/07/18 05:17:35;;;;;;;;;;;19.10;92.20;;;;;;5112745;27;19977;-55
2022/07/18 05:20:16;;;;;;;;;;;19.20;91.00;;;;;;5124682;27;19919;-54
2022/07/18 05:22:56;;;;;;;;;;;19.50;83.90;;;;;;5126127;27;19912;-55
2022/07/18 05:25:36;;;;;;;;;;;19.90;76.80;;;;;;5126683;27;20320;-55
2022/07/18 05:28:15;;;;;;;;;;;20.30;73.10;;;;;;5126663;27;20384;-55
2022/07/18 05:30:55;;;;;;;;;;;20.50;66.70;;;;;;5118525;27;19912;-55
2022/07/18 05:33:35;;;;;;;;;;;20.40;64.10;;;;;;5127537;27;20184;-55
2022/07/18 05:36:15;;;;;;;;;;;20.40;58.80;;;;;;5106254;27;19962;-55
2022/07/18 05:38:55;;;;;;;;;;;20.30;62.10;;;;;;5126908;27;19912;-54
2022/07/18 05:41:35;;;;;;;;;;;19.50;61.10;;;;;;5106384;27;20377;-54
2022/07/18 05:44:14;;;;;;;;;;;18.70;62.20;;;;;;5126711;27;19912;-55
2022/07/18 05:46:54;;;;;;;;;;;18.20;69.20;;;;;;5130011;27;19912;-55
2022/07/18 05:49:34;;;;;;;;;;;17.80;78.40;;;;;;5126852;27;20436;-55
2022/07/18 05:52:14;;;;;;;;;;;17.60;82.90;;;;;;5106702;27;19981;-55
2022/07/18 05:54:54;;;;;;;;;;;17.60;86.90;;;;;;5086216;28;20324;-55
2022/07/18 05:57:34;;;;;;;;;;;17.70;92.10;;;;;;5106079;27;20328;-56
2022/07/18 06:00:14;;;;;;;;;;;17.80;89.80;;;;;;5124267;27;19916;-55
2022/07/18 06:02:55;;;;;;;;;;;17.70;89.20;;;;;;5126690;27;19912;-54
2022/07/18 06:05:35;;;;;;;;;;;17.90;91.70;;;;;;5126758;27;20369;-55
2022/07/18 06:08:14;;;;;;;;;;;18.10;88.30;;;;;;5126842;27;19912;-55
2022/07/18 06:10:54;;;;;;;;;;;18.20;82.40;;;;;;5118498;27;19912;-55
2022/07/18 06:13:34;;;;;;;;;;;18.20;74.10;;;;;;5166937;27;20083;-55
2022/07/18 06:16:14;;;;;;;;;;;18.40;74.60;;;;;;5085926;28;20317;-55
2022/07/18 06:18:54;;;;;;;;;;;18.60;71.60;;;;;;5112689;27;19916;-55
2022/07/18 06:21:34;;;;;;;;;;;18.80;72.80;;;;;;5106396;27;19912;-55
2022/07/18 06:24:14;;;;;;;;;;;18.80;72.90;;;;;;5127034;27;19911;-55
2022/07/18 06:26:53;;;;;;;;;;;18.80;74.60;;;;;;5127030;27;19919;-55
2022/07/18 06:29:33;;;;;;;;;;;19.00;73.10;;;;;;5127012;27;19912;-55
2022/07/18 06:32:13;;;;;;;;;;;19.00;73.90;;;;;;5126817;27;19912;-55
2022/07/18 06:34:53;;;;;;;;;;;19.10;75.80;;;;;;5126644;27;20331;-55
2022/07/18 06:37:33;;;;;;;;;;;19.20;74.00;;;;;;5126580;27;20300;-55
2022/07/18 06:40:13;;;;;;;;;;;19.30;72.00;;;;;;5085809;28;19913;-55
2022/07/18 06:42:52;;;;;;;;;;;19.40;71.70;;;;;;5085920;28;19913;-55
2022/07/18 06:45:34;;;;;;;;;;;19.40;70.50;;;;;;5126748;27;20261;-54
2022/07/18 06:48:14;;;;;;;;;;;19.60;71.50;;;;;;5133524;27;19911;-55
2022/07/18 06:50:53;;;;;;;;;;;19.60;70.80;;;;;;5106645;27;19926;-56
2022/07/18 06:53:33;;;;;;;;;;;19.70;70.20;;;;;;5127637;27;20168;-55
2022/07/18 06:56:13;;;;;;;;;;;20.00;70.20;;;;;;5127424;27;19911;-55
2022/07/18 06:58:53;;;;;;;;;;;20.20;67.40;;;;;;5126885;27;19934;-55
2022/07/18 07:01:33;;;;;;;;;;;20.40;64.30;;;;;;5112842;27;20419;-55
2022/07/18 07:04:13;;;;;;;;;;;20.60;63.40;;;;;;5126843;27;19916;-55
2022/07/18 07:06:52;;;;;;;;;;;20.70;61.60;;;;;;5106225;27;19942;-55
2022/07/18 07:09:32;;;;;;;;;;;20.90;61.30;;;;;;5106855;27;19912;-55
2022/07/18 07:12:12;;;;;;;;;;;21.10;62.00;;;;;;5127124;27;20368;-56
2022/07/18 07:14:52;;;;;;;;;;;21.40;60.70;;;;;;5126809;27;20405;-55
2022/07/18 07:17:32;;;;;;;;;;;21.60;55.80;;;;;;5125816;27;19912;-55
2022/07/18 07:20:13;;;;;;;;;;;21.80;54.40;;;;;;5106456;27;19926;-55
2022/07/18 07:22:54;;;;;;;;;;;22.00;53.20;;;;;;5127079;27;19912;-55
2022/07/18 07:25:35;;;;;;;;;;;22.20;53.10;;;;;;5126780;27;19912;-56
2022/07/18 07:28:16;;;;;;;;;;;22.40;51.90;;;;;;5126942;27;20017;-55
2022/07/18 07:30:56;;;;;;;;;;;22.60;50.90;;;;;;5118052;27;19912;-55
2022/07/18 07:33:36;;;;;;;;;;;22.70;50.80;;;;;;5127331;27;19911;-55
2022/07/18 07:36:17;;;;;;;;;;;22.80;49.20;;;;;;5126947;27;19933;-55
2022/07/18 07:38:57;;;;;;;;;;;22.90;48.70;;;;;;5126959;27;20430;-55
2022/07/18 07:41:37;;;;;;;;;;;23.00;48.30;;;;;;5112544;27;19912;-55
2022/07/18 07:44:16;;;;;;;;;;;23.20;48.10;;;;;;5126975;27;19921;-55
2022/07/18 07:46:59;;;;;;;;;;;23.20;47.10;;;;;;5126948;27;19911;-55
2022/07/18 07:49:39;;;;;;;;;;;23.40;46.20;;;;;;5127075;27;19912;-56
2022/07/18 07:52:20;;;;;;;;;;;23.50;46.80;;;;;;5127107;27;19912;-56
2022/07/18 07:55:00;;;;;;;;;;;23.60;45.80;;;;;;5127176;27;19911;-55
2022/07/18 07:57:40;;;;;;;;;;;23.60;46.40;;;;;;5106600;27;19953;-55
2022/07/18 08:00:20;;;;;;;;;;;23.80;45.00;;;;;;5165046;27;19915;-56
2022/07/18 08:03:01;;;;;;;;;;;24.00;45.20;;;;;;5126954;27;19911;-55
2022/07/18 08:05:46;;;;;;;;;;;24.10;44.60;;;;;;5127143;27;19912;-55
2022/07/18 08:08:26;;;;;;;;;;;24.20;43.70;;;;;;5127214;27;20289;-55
2022/07/18 08:11:06;;;;;;;;;;;24.30;43.10;;;;;;5106470;27;20423;-55
2022/07/18 08:13:46;;;;;;;;;;;24.30;43.90;;;;;;5086243;28;19913;-56
2022/07/18 08:16:25;;;;;;;;;;;24.40;43.60;;;;;;5126109;27;19912;-56
2022/07/18 08:19:05;;;;;;;;;;;24.60;42.40;;;;;;5126802;27;19911;-55
2022/07/18 08:21:45;;;;;;;;;;;24.60;42.30;;;;;;5106584;27;19970;-56
2022/07/18 08:24:25;;;;;;;;;;;24.70;42.30;;;;;;5127029;27;19912;-55
2022/07/18 08:27:06;;;;;;;;;;;24.80;43.30;;;;;;5127107;27;20266;-55
2022/07/18 08:29:46;;;;;;;;;;;25.00;41.90;;;;;;5127095;27;19912;-56
2022/07/18 08:32:26;;;;;;;;;;;25.00;41.60;;;;;;5127202;27;19912;-55
2022/07/18 08:35:07;;;;;;;;;;;25.00;41.50;;;;;;5126877;27;20327;-56
2022/07/18 08:37:47;;;;;;;;;;;25.00;41.20;;;;;;5127485;27;19912;-55
2022/07/18 08:40:27;;;;;;;;;;;25.00;41.20;;;;;;5126987;27;19916;-56
2022/07/18 08:43:07;;;;;;;;;;;25.10;41.30;;;;;;5127211;27;19912;-55
2022/07/18 08:45:47;;;;;;;;;;;25.20;41.50;;;;;;5106231;27;19930;-55
2022/07/18 08:48:27;;;;;;;;;;;25.20;40.40;;;;;;5086485;28;19912;-55
2022/07/18 08:51:07;;;;;;;;;;;25.30;40.50;;;;;;5126920;27;19912;-55
2022/07/18 08:53:48;;;;;;;;;;;25.40;40.10;;;;;;5127436;27;19915;-54
2022/07/18 08:56:28;;;;;;;;;;;25.50;39.80;;;;;;5106191;27;19926;-55
2022/07/18 08:59:08;;;;;;;;;;;25.70;40.60;;;;;;5127310;27;19916;-56
2022/07/18 09:01:47;;;;;;;;;;;25.80;38.70;;;;;;5146653;22;19916;-54
2022/07/18 09:04:34;;;;;;;;;;;25.90;37.20;;;;;;5125585;27;19911;-54
2022/07/18 09:07:25;;;;;;;;;;;25.90;36.70;;;;;;5104225;27;19942;-54
2022/07/18 09:10:05;;;;;;;;;;;25.90;38.90;;;;;;5125869;27;19934;-54
2022/07/18 09:12:57;;;;;;;;;;;26.00;37.70;;;;;;5105473;27;19921;-54
2022/07/18 09:15:56;;;;;;;;;;;26.20;38.00;;;;;;5125544;27;19930;-54
2022/07/18 09:18:38;;;;;;;;;;;26.40;37.80;;;;;;5123673;27;20281;-53
2022/07/18 09:21:18;;;;;;;;;;;26.60;34.80;;;;;;5125829;27;19919;-53
2022/07/18 09:23:59;;;;;;;;;;;26.60;35.90;;;;;;5105336;27;19916;-54
2022/07/18 09:26:40;;;;;;;;;;;26.80;33.60;;;;;;5124890;27;19930;-54
2022/07/18 09:29:20;;;;;;;;;;;26.80;33.80;;;;;;5125400;27;19916;-54
2022/07/18 09:32:00;;;;;;;;;;;27.00;33.00;;;;;;5104945;27;19953;-54
2022/07/18 09:34:40;;;;;;;;;;;27.00;34.30;;;;;;5125613;27;20407;-54
2022/07/18 09:37:22;;;;;;;;;;;27.20;33.00;;;;;;5124383;27;19919;-54
2022/07/18 09:40:25;;;;;;;;;;;27.40;29.90;;;;;;5125425;27;19919;-54
2022/07/18 09:43:06;;;;;;;;;;;27.40;29.50;;;;;;5105264;27;19919;-54
2022/07/18 09:45:47;;;;;;;;;;;27.40;31.30;;;;;;5124795;27;20172;-55
2022/07/18 09:48:28;;;;;;;;;;;27.40;30.00;;;;;;5125048;27;19922;-55
2022/07/18 09:51:09;;;;;;;;;;;27.40;30.60;;;;;;5125560;27;19933;-54
2022/07/18 09:53:49;;;;;;;;;;;27.30;30.60;;;;;;5105126;27;19949;-54
2022/07/18 09:56:33;;;;;;;;;;;27.40;31.40;;;;;;5124861;27;19916;-53
2022/07/18 09:59:13;;;;;;;;;;;27.60;34.10;;;;;;5125907;27;20278;-54
2022/07/18 10:01:53;;;;;;;;;;;27.80;30.50;;;;;;5125985;27;19911;-54
2022/07/18 10:04:33;;;;;;;;;;;27.80;30.00;;;;;;5125813;27;19912;-54
2022/07/18 10:07:13;;;;;;;;;;;27.80;32.10;;;;;;5124290;27;20098;-55
2022/07/18 10:09:53;;;;;;;;;;;27.80;30.60;;;;;;5105368;27;19961;-55
2022/07/18 10:12:33;;;;;;;;;;;27.90;30.00;;;;;;5125386;27;19918;-54
2022/07/18 10:15:15;;;;;;;;;;;27.80;30.00;;;;;;5125511;27;19934;-54
2022/07/18 10:17:56;;;;;;;;;;;28.00;31.20;;;;;;5102538;27;19918;-54
2022/07/18 10:20:38;;;;;;;;;;;28.20;29.90;;;;;;5125709;27;19915;-54
2022/07/18 10:23:20;;;;;;;;;;;28.10;29.80;;;;;;5104904;27;19930;-54
2022/07/18 10:26:12;;;;;;;;;;;28.20;30.60;;;;;;5124683;27;19931;-55
2022/07/18 10:29:11;;;;;;;;;;;28.40;30.80;;;;;;5125573;27;20320;-55
2022/07/18 10:32:05;;;;;;;;;;;28.60;30.80;;;;;;5159127;27;19915;-55
2022/07/18 10:34:46;;;;;;;;;;;28.80;30.80;;;;;;5125916;27;20422;-54
2022/07/18 10:37:26;;;;;;;;;;;28.90;29.30;;;;;;5124715;27;19916;-54
2022/07/18 10:40:21;;;;;;;;;;;29.00;30.20;;;;;;5125857;27;20121;-54
2022/07/18 10:43:20;;;;;;;;;;;29.10;29.90;;;;;;5113609;27;19912;-55
2022/07/18 10:46:01;;;;;;;;;;;29.00;30.20;;;;;;5124961;27;20320;-55
2022/07/18 10:49:01;;;;;;;;;;;29.10;28.40;;;;;;5125398;27;19916;-54
2022/07/18 10:51:40;;;;;;;;;;;29.20;28.90;;;;;;5124216;27;19925;-54
2022/07/18 10:54:20;;;;;;;;;;;29.30;28.60;;;;;;5125576;27;19918;-54
2022/07/18 10:57:10;;;;;;;;;;;29.20;27.50;;;;;;5104713;27;19973;-54
2022/07/18 11:00:02;;;;;;;;;;;29.20;27.00;;;;;;5160289;27;19911;-54
2022/07/18 11:02:43;;;;;;;;;;;29.40;26.90;;;;;;5115649;27;19922;-54
2022/07/18 11:05:34;;;;;;;;;;;29.50;26.40;;;;;;5125222;27;19918;-55
2022/07/18 11:08:19;;;;;;;;;;;29.60;26.80;;;;;;5105037;27;19912;-54
2022/07/18 11:11:06;;;;;;;;;;;29.80;25.80;;;;;;5125574;27;20273;-54
2022/07/18 11:13:50;;;;;;;;;;;29.80;25.20;;;;;;5105312;27;20373;-55
2022/07/18 11:16:32;;;;;;;;;;;29.70;26.10;;;;;;5104374;27;19926;-54
2022/07/18 11:19:19;;;;;;;;;;;29.80;25.50;;;;;;5123993;27;20180;-55
2022/07/18 11:22:00;;;;;;;;;;;30.00;25.40;;;;;;5122084;27;19919;-54
2022/07/18 11:24:41;;;;;;;;;;;30.30;25.20;;;;;;5105543;27;19926;-54
2022/07/18 11:27:21;;;;;;;;;;;30.50;24.10;;;;;;5124637;27;19912;-54
2022/07/18 11:30:00;;;;;;;;;;;30.50;24.10;;;;;;5105006;27;19912;-53
2022/07/18 11:32:40;;;;;;;;;;;30.60;23.70;;;;;;5116115;27;19912;-55
2022/07/18 11:35:25;;;;;;;;;;;30.50;23.80;;;;;;5125595;27;19916;-54
2022/07/18 11:38:06;;;;;;;;;;;30.60;24.20;;;;;;5125000;27;20527;-54
2022/07/18 11:40:50;;;;;;;;;;;30.60;24.30;;;;;;5124169;27;19916;-54
2022/07/18 11:43:31;;;;;;;;;;;30.80;24.00;;;;;;5107861;27;20262;-55
2022/07/18 11:46:12;;;;;;;;;;;30.90;24.50;;;;;;5104859;27;19916;-54
2022/07/18 11:48:58;;;;;;;;;;;30.90;25.00;;;;;;5105984;27;19916;-54
2022/07/18 11:51:40;;;;;;;;;;;31.10;24.00;;;;;;5124854;27;19920;-53
2022/07/18 11:54:25;;;;;;;;;;;31.00;24.90;;;;;;5125292;27;19918;-54
2022/07/18 11:57:04;;;;;;;;;;;31.20;24.50;;;;;;5124958;27;19911;-53
2022/07/18 11:59:44;;;;;;;;;;;31.30;24.50;;;;;;5125250;27;19912;-54
2022/07/18 12:02:41;;;;;;;;;;;31.40;24.60;;;;;;5105316;27;19953;-54
2022/07/18 12:05:41;;;;;;;;;;;31.40;24.20;;;;;;5104829;27;19912;-54
2022/07/18 12:08:35;;;;;;;;;;;31.20;23.60;;;;;;5125701;27;19911;-55
2022/07/18 12:11:19;;;;;;;;;;;31.20;22.90;;;;;;5125206;27;19912;-54
2022/07/18 12:14:00;;;;;;;;;;;31.00;24.60;;;;;;5104761;27;19913;-54
2022/07/18 12:16:42;;;;;;;;;;;31.20;26.00;;;;;;5125184;27;19938;-54
2022/07/18 12:19:24;;;;;;;;;;;31.30;23.20;;;;;;5123906;27;19922;-53
2022/07/18 12:22:07;;;;;;;;;;;31.20;23.80;;;;;;5121443;27;20323;-54
2022/07/18 12:24:54;;;;;;;;;;;31.30;24.30;;;;;;5138857;27;20339;-54
2022/07/18 12:27:36;;;;;;;;;;;31.20;23.60;;;;;;5104353;27;20377;-54
2022/07/18 12:30:19;;;;;;;;;;;31.20;24.40;;;;;;5126031;27;19916;-54
2022/07/18 12:32:59;;;;;;;;;;;31.40;25.20;;;;;;5105348;27;19912;-55
2022/07/18 12:35:39;;;;;;;;;;;31.70;23.20;;;;;;5124833;27;19919;-54
2022/07/18 12:38:20;;;;;;;;;;;31.80;23.20;;;;;;5123845;27;19916;-54
2022/07/18 12:41:03;;;;;;;;;;;32.10;23.00;;;;;;5125929;27;19922;-54
2022/07/18 12:43:43;;;;;;;;;;;32.00;21.80;;;;;;5145774;27;19925;-54
2022/07/18 12:46:23;;;;;;;;;;;31.60;24.10;;;;;;5160483;27;19918;-54
2022/07/18 12:49:03;;;;;;;;;;;31.60;22.70;;;;;;5123990;27;19912;-54
2022/07/18 12:51:43;;;;;;;;;;;31.50;21.90;;;;;;5123420;27;19922;-54
2022/07/18 12:54:22;;;;;;;;;;;31.40;22.90;;;;;;5104709;27;19926;-54
2022/07/18 12:57:02;;;;;;;;;;;31.70;22.50;;;;;;5124479;27;20394;-54
2022/07/18 12:59:42;;;;;;;;;;;32.00;22.80;;;;;;5125509;27;19930;-53
2022/07/18 13:02:22;;;;;;;;;;;32.10;22.40;;;;;;5105227;27;19912;-54
2022/07/18 13:05:04;;;;;;;;;;;32.20;22.30;;;;;;5125241;27;19915;-54
2022/07/18 13:07:45;;;;;;;;;;;32.30;21.60;;;;;;5124623;27;19912;-55
2022/07/18 13:10:25;;;;;;;;;;;32.30;21.30;;;;;;5105241;27;20335;-53
2022/07/18 13:13:05;;;;;;;;;;;31.90;22.30;;;;;;5125634;27;19961;-53
2022/07/18 13:15:46;;;;;;;;;;;32.00;22.50;;;;;;5104390;27;19922;-54
2022/07/18 13:18:26;;;;;;;;;;;32.20;22.30;;;;;;5153863;27;19911;-54
2022/07/18 13:21:06;;;;;;;;;;;32.40;21.60;;;;;;5125617;27;19912;-54
2022/07/18 13:23:45;;;;;;;;;;;32.70;21.50;;;;;;5125681;27;20372;-54
2022/07/18 13:26:25;;;;;;;;;;;32.70;22.20;;;;;;5124726;27;19911;-54
2022/07/18 13:29:05;;;;;;;;;;;32.80;21.50;;;;;;5125487;27;19912;-54
2022/07/18 13:31:48;;;;;;;;;;;33.00;22.30;;;;;;5125653;27;20262;-54
2022/07/18 13:34:28;;;;;;;;;;;33.30;21.10;;;;;;5105122;27;19985;-55
2022/07/18 13:37:08;;;;;;;;;;;33.60;21.50;;;;;;5104173;27;19912;-53
2022/07/18 13:39:48;;;;;;;;;;;33.90;20.30;;;;;;5125687;27;19918;-54
2022/07/18 13:42:27;;;;;;;;;;;34.00;20.10;;;;;;5125589;27;20262;-53
2022/07/18 13:45:08;;;;;;;;;;;33.70;20.20;;;;;;5125608;27;19918;-53
2022/07/18 13:47:49;;;;;;;;;;;33.80;19.90;;;;;;5110743;27;19981;-54
2022/07/18 13:50:28;;;;;;;;;;;34.00;19.90;;;;;;5125706;27;19920;-54
2022/07/18 13:53:08;;;;;;;;;;;34.20;20.00;;;;;;5112383;27;20319;-54
2022/07/18 13:55:48;;;;;;;;;;;34.30;20.00;;;;;;5124957;27;19918;-54
2022/07/18 13:58:28;;;;;;;;;;;34.30;20.00;;;;;;5125391;27;19912;-54
2022/07/18 14:01:08;;;;;;;;;;;34.40;20.70;;;;;;5125881;27;19922;-54
2022/07/18 14:03:47;;;;;;;;;;;34.50;19.70;;;;;;5125842;27;19912;-53
2022/07/18 14:06:27;;;;;;;;;;;34.60;19.10;;;;;;5104369;27;19920;-54
2022/07/18 14:09:07;;;;;;;;;;;34.80;19.90;;;;;;5104905;27;19926;-54
2022/07/18 14:11:47;;;;;;;;;;;35.00;19.40;;;;;;5123952;27;19912;-54
2022/07/18 14:14:27;;;;;;;;;;;34.80;19.40;;;;;;5125702;27;19918;-54
2022/07/18 14:17:07;;;;;;;;;;;34.70;19.30;;;;;;5124531;27;19918;-55
2022/07/18 14:19:46;;;;;;;;;;;34.70;19.20;;;;;;5124744;27;19918;-53
2022/07/18 14:22:26;;;;;;;;;;;34.80;19.10;;;;;;5171496;27;20544;-54
2022/07/18 14:25:07;;;;;;;;;;;34.60;19.30;;;;;;5104936;27;19926;-54
2022/07/18 14:27:48;;;;;;;;;;;34.50;20.20;;;;;;5104354;27;19969;-54
2022/07/18 14:30:27;;;;;;;;;;;34.40;19.70;;;;;;5125529;27;19912;-54
2022/07/18 14:33:07;;;;;;;;;;;34.20;20.30;;;;;;5112033;27;20397;-54
2022/07/18 14:35:47;;;;;;;;;;;34.50;20.40;;;;;;5104373;27;19913;-54
2022/07/18 14:38:27;;;;;;;;;;;34.60;20.40;;;;;;5125134;27;20249;-53
2022/07/18 14:41:07;;;;;;;;;;;34.80;20.10;;;;;;5126114;27;19918;-54
2022/07/18 14:43:47;;;;;;;;;;;35.00;18.70;;;;;;5125632;27;19945;-54
2022/07/18 14:46:26;;;;;;;;;;;35.00;18.50;;;;;;5124623;27;20315;-54
2022/07/18 14:49:06;;;;;;;;;;;35.00;18.60;;;;;;5125559;27;20393;-53
2022/07/18 14:51:46;;;;;;;;;;;34.90;18.50;;;;;;5123806;27;19920;-53
2022/07/18 14:54:26;;;;;;;;;;;34.90;18.90;;;;;;5125454;27;19922;-54
2022/07/18 14:57:06;;;;;;;;;;;34.90;18.80;;;;;;5104142;27;19961;-53
2022/07/18 14:59:45;;;;;;;;;;;34.90;18.80;;;;;;5125111;27;19918;-53
2022/07/18 15:02:25;;;;;;;;;;;35.00;18.40;;;;;;5105589;27;19930;-53
2022/07/18 15:05:06;;;;;;;;;;;35.20;19.50;;;;;;5125315;27;20450;-53
2022/07/18 15:07:47;;;;;;;;;;;35.20;19.00;;;;;;5122996;27;19912;-53
2022/07/18 15:10:26;;;;;;;;;;;35.00;19.50;;;;;;5122047;27;19945;-53
2022/07/18 15:13:06;;;;;;;;;;;35.20;19.60;;;;;;5090942;27;20308;-54
2022/07/18 15:15:47;;;;;;;;;;;35.30;18.50;;;;;;5125288;27;19930;-55
2022/07/18 15:18:28;;;;;;;;;;;35.50;18.80;;;;;;5123569;27;19922;-56
2022/07/18 15:21:07;;;;;;;;;;;35.60;18.90;;;;;;5120883;27;20266;-53
2022/07/18 15:23:47;;;;;;;;;;;35.70;19.40;;;;;;5120050;27;19911;-52
2022/07/18 15:26:27;;;;;;;;;;;35.70;18.10;;;;;;5123130;27;19926;-52
2022/07/18 15:29:07;;;;;;;;;;;35.70;19.00;;;;;;5125335;27;19918;-54
2022/07/18 15:31:47;;;;;;;;;;;35.50;18.50;;;;;;5125400;27;19912;-56
2022/07/18 15:34:26;;;;;;;;;;;35.30;19.00;;;;;;5125782;27;20328;-53
2022/07/18 15:37:06;;;;;;;;;;;35.20;19.50;;;;;;5124550;27;19912;-53
2022/07/18 15:39:46;;;;;;;;;;;35.30;18.90;;;;;;5125890;27;19915;-52
2022/07/18 15:42:26;;;;;;;;;;;35.40;18.30;;;;;;5104489;27;19916;-53
2022/07/18 15:45:07;;;;;;;;;;;35.70;19.30;;;;;;5105161;27;19912;-54